Brewarrina Airport


Codes: YBRW/BWQ
Name: Brewarrina Airport
City:
Country: Australia
Elevation: 414 ft.

Photos at Brewarrina Airport


   Photos courtesy of SpottingLog. You can add your own sightings and photos by signing up for a free trial today.



No photos found.

Weather at Brewarrina Airport


Time (UTC)DescriptionTempratureWindCloud coverageVisibilityPressureHumidity
23-May-2024 21:00Overcast Clouds11°C7 mph, SE89%10000m1025hPa58%
24-May-2024 00:00Broken Clouds14°C4 mph, E82%10000m1025hPa49%
24-May-2024 03:00Overcast Clouds18°C2 mph, SE100%10000m1024hPa36%
24-May-2024 06:00Overcast Clouds19°C2 mph, SE99%10000m1023hPa36%
24-May-2024 09:00Overcast Clouds15°C7 mph, SE100%10000m1024hPa45%
24-May-2024 12:00Overcast Clouds14°C7 mph, SE100%10000m1025hPa47%
24-May-2024 15:00Overcast Clouds14°C7 mph, SE100%10000m1024hPa51%
24-May-2024 18:00Overcast Clouds13°C7 mph, SE100%10000m1024hPa52%
24-May-2024 21:00Overcast Clouds12°C7 mph, SE89%10000m1025hPa57%
25-May-2024 00:00Overcast Clouds17°C7 mph, E94%10000m1026hPa46%
25-May-2024 03:00Broken Clouds20°C2 mph, NE51%10000m1024hPa39%
25-May-2024 06:00Broken Clouds21°C2 mph, S61%10000m1022hPa38%
25-May-2024 09:00Broken Clouds17°C7 mph, SE62%10000m1024hPa49%
25-May-2024 12:00Scattered Clouds16°C7 mph, SE36%10000m1025hPa52%
25-May-2024 15:00Clear Sky14°C7 mph, SE0%10000m1024hPa55%
25-May-2024 18:00Clear Sky14°C7 mph, SE0%10000m1024hPa60%
25-May-2024 21:00Clear Sky13°C7 mph, SE0%10000m1025hPa67%
26-May-2024 00:00Clear Sky18°C4 mph, E0%10000m1026hPa56%
26-May-2024 03:00Clear Sky21°C2 mph, NE0%10000m1024hPa45%
26-May-2024 06:00Clear Sky21°C4 mph, SW0%10000m1022hPa43%
26-May-2024 09:00Clear Sky18°C4 mph, SE0%10000m1023hPa55%
26-May-2024 12:00Clear Sky16°C4 mph, SE0%10000m1024hPa59%
26-May-2024 15:00Clear Sky15°C7 mph, SE0%10000m1024hPa59%
26-May-2024 18:00Clear Sky14°C7 mph, SE0%10000m1023hPa60%
26-May-2024 21:00Clear Sky12°C7 mph, SE0%10000m1025hPa62%
27-May-2024 00:00Clear Sky17°C7 mph, SE0%10000m1026hPa49%
27-May-2024 03:00Clear Sky20°C4 mph, S0%10000m1024hPa42%
27-May-2024 06:00Clear Sky20°C7 mph, S0%10000m1023hPa38%
27-May-2024 09:00Clear Sky16°C9 mph, SE0%10000m1024hPa47%
27-May-2024 12:00Clear Sky14°C9 mph, SE0%10000m1025hPa52%
27-May-2024 15:00Clear Sky12°C9 mph, SE0%10000m1025hPa55%
27-May-2024 18:00Clear Sky11°C9 mph, SE0%10000m1025hPa60%
27-May-2024 21:00Clear Sky10°C9 mph, SE0%10000m1026hPa64%
28-May-2024 00:00Clear Sky15°C7 mph, SE0%10000m1026hPa47%
28-May-2024 03:00Clear Sky19°C4 mph, SE0%10000m1024hPa36%
28-May-2024 06:00Clear Sky20°C2 mph, E0%10000m1023hPa33%
28-May-2024 09:00Clear Sky15°C4 mph, E0%10000m1024hPa45%
28-May-2024 12:00Clear Sky15°C4 mph, E0%10000m1024hPa46%
28-May-2024 15:00Clear Sky14°C7 mph, E0%10000m1023hPa47%
28-May-2024 18:00Clear Sky14°C7 mph, E0%10000m1023hPa50%